sensor_id;sensor_type;location;lat;lon;timestamp;pressure;altitude;pressure_sealevel;temperature;humidity
57779;BME280;43608;49.486;9.640;2023-03-14T00:00:24;96906.31;;;9.44;87.51
57779;BME280;43608;49.486;9.640;2023-03-14T00:00:54;96906.28;;;9.46;87.53
57779;BME280;43608;49.486;9.640;2023-03-14T00:01:25;96912.31;;;9.49;87.62
57779;BME280;43608;49.486;9.640;2023-03-14T00:01:55;96915.06;;;9.46;87.35
57779;BME280;43608;49.486;9.640;2023-03-14T00:02:26;96921.94;;;9.52;87.48
57779;BME280;43608;49.486;9.640;2023-03-14T00:02:57;96916.66;;;9.52;87.41
57779;BME280;43608;49.486;9.640;2023-03-14T00:03:28;96916.66;;;9.53;87.44
57779;BME280;43608;49.486;9.640;2023-03-14T00:03:58;96912.25;;;9.52;87.41
57779;BME280;43608;49.486;9.640;2023-03-14T00:04:30;96891.38;;;9.43;87.29
57779;BME280;43608;49.486;9.640;2023-03-14T00:05:00;96914.81;;;9.55;87.25
57779;BME280;43608;49.486;9.640;2023-03-14T00:05:36;96897.50;;;9.43;87.20
57779;BME280;43608;49.486;9.640;2023-03-14T00:06:07;96900.91;;;9.49;87.28
57779;BME280;43608;49.486;9.640;2023-03-14T00:06:38;96900.94;;;9.47;87.26
57779;BME280;43608;49.486;9.640;2023-03-14T00:07:11;96900.78;;;9.52;87.19
57779;BME280;43608;49.486;9.640;2023-03-14T00:07:41;96913.06;;;9.56;87.23
57779;BME280;43608;49.486;9.640;2023-03-14T00:08:12;96904.28;;;9.54;87.26
57779;BME280;43608;49.486;9.640;2023-03-14T00:08:44;96905.19;;;9.53;87.40
57779;BME280;43608;49.486;9.640;2023-03-14T00:09:14;96888.72;;;9.43;87.20
57779;BME280;43608;49.486;9.640;2023-03-14T00:09:45;96863.72;;;9.23;87.20
57779;BME280;43608;49.486;9.640;2023-03-14T00:10:16;96906.09;;;9.52;87.26
57779;BME280;43608;49.486;9.640;2023-03-14T00:10:46;96916.50;;;9.58;87.26
57779;BME280;43608;49.486;9.640;2023-03-14T00:11:20;96915.59;;;9.59;87.06
57779;BME280;43608;49.486;9.640;2023-03-14T00:11:52;96905.19;;;9.53;87.09
57779;BME280;43608;49.486;9.640;2023-03-14T00:12:23;96898.25;;;9.49;87.05
57779;BME280;43608;49.486;9.640;2023-03-14T00:12:53;96915.63;;;9.57;86.86
57779;BME280;43608;49.486;9.640;2023-03-14T00:13:24;96898.03;;;9.56;86.91
57779;BME280;43608;49.486;9.640;2023-03-14T00:13:55;96910.41;;;9.54;86.86
57779;BME280;43608;49.486;9.640;2023-03-14T00:14:25;96909.28;;;9.63;86.77
57779;BME280;43608;49.486;9.640;2023-03-14T00:14:55;96920.72;;;9.65;86.43
57779;BME280;43608;49.486;9.640;2023-03-14T00:15:26;96911.09;;;9.63;86.03
57779;BME280;43608;49.486;9.640;2023-03-14T00:16:02;96914.47;;;9.68;86.26
57779;BME280;43608;49.486;9.640;2023-03-14T00:16:32;96905.84;;;9.61;86.00
57779;BME280;43608;49.486;9.640;2023-03-14T00:17:02;96914.38;;;9.71;85.90
57779;BME280;43608;49.486;9.640;2023-03-14T00:17:34;96911.72;;;9.71;85.82
57779;BME280;43608;49.486;9.640;2023-03-14T00:18:05;96907.25;;;9.73;85.66
57779;BME280;43608;49.486;9.640;2023-03-14T00:18:35;96901.28;;;9.66;85.71
57779;BME280;43608;49.486;9.640;2023-03-14T00:19:06;96876.75;;;9.61;85.39
57779;BME280;43608;49.486;9.640;2023-03-14T00:19:36;96874.91;;;9.63;85.31
57779;BME280;43608;49.486;9.640;2023-03-14T00:20:07;96903.66;;;9.75;85.11
57779;BME280;43608;49.486;9.640;2023-03-14T00:20:41;96901.75;;;9.79;85.12
57779;BME280;43608;49.486;9.640;2023-03-14T00:21:12;96900.91;;;9.79;84.82
57779;BME280;43608;49.486;9.640;2023-03-14T00:21:42;96874.84;;;9.65;84.86
57779;BME280;43608;49.486;9.640;2023-03-14T00:22:13;96891.47;;;9.70;84.62
57779;BME280;43608;49.486;9.640;2023-03-14T00:22:43;96879.28;;;9.64;84.42
57779;BME280;43608;49.486;9.640;2023-03-14T00:23:13;96874.69;;;9.71;84.40
57779;BME280;43608;49.486;9.640;2023-03-14T00:23:44;96873.09;;;9.65;84.23
57779;BME280;43608;49.486;9.640;2023-03-14T00:24:14;96899.84;;;9.86;83.95
57779;BME280;43608;49.486;9.640;2023-03-14T00:24:45;96884.19;;;9.78;83.76
57779;BME280;43608;49.486;9.640;2023-03-14T00:25:15;96908.56;;;9.88;83.76
57779;BME280;43608;49.486;9.640;2023-03-14T00:25:45;96853.84;;;9.60;83.72
57779;BME280;43608;49.486;9.640;2023-03-14T00:26:18;96912.34;;;9.81;83.51
57779;BME280;43608;49.486;9.640;2023-03-14T00:26:48;96893.84;;;9.79;83.52
57779;BME280;43608;49.486;9.640;2023-03-14T00:27:19;96909.31;;;9.93;83.41
57779;BME280;43608;49.486;9.640;2023-03-14T00:27:52;96907.53;;;9.94;83.36
57779;BME280;43608;49.486;9.640;2023-03-14T00:28:22;96911.28;;;9.86;82.98
57779;BME280;43608;49.486;9.640;2023-03-14T00:28:53;96904.91;;;9.94;83.00
57779;BME280;43608;49.486;9.640;2023-03-14T00:29:24;96898.94;;;9.85;82.91
57779;BME280;43608;49.486;9.640;2023-03-14T00:29:54;96887.50;;;9.85;82.92
57779;BME280;43608;49.486;9.640;2023-03-14T00:30:25;96883.25;;;9.79;82.94
57779;BME280;43608;49.486;9.640;2023-03-14T00:30:55;96911.00;;;9.96;83.17
57779;BME280;43608;49.486;9.640;2023-03-14T00:31:26;96908.28;;;9.97;83.32
57779;BME280;43608;49.486;9.640;2023-03-14T00:31:57;96904.91;;;9.94;83.71
57779;BME280;43608;49.486;9.640;2023-03-14T00:32:27;96910.81;;;10.02;84.01
57779;BME280;43608;49.486;9.640;2023-03-14T00:32:57;96903.66;;;10.04;83.92
57779;BME280;43608;49.486;9.640;2023-03-14T00:33:28;96903.09;;;9.94;84.03
57779;BME280;43608;49.486;9.640;2023-03-14T00:33:58;96918.56;;;10.08;83.80
57779;BME280;43608;49.486;9.640;2023-03-14T00:34:29;96903.66;;;10.05;83.54
57779;BME280;43608;49.486;9.640;2023-03-14T00:35:00;96909.56;;;10.14;83.30
57779;BME280;43608;49.486;9.640;2023-03-14T00:35:30;96897.53;;;10.03;83.07
57779;BME280;43608;49.486;9.640;2023-03-14T00:36:04;96917.38;;;10.18;82.87
57779;BME280;43608;49.486;9.640;2023-03-14T00:36:34;96909.44;;;10.18;82.88
57779;BME280;43608;49.486;9.640;2023-03-14T00:37:05;96903.41;;;10.13;82.52
57779;BME280;43608;49.486;9.640;2023-03-14T00:37:35;96910.19;;;10.22;82.64
57779;BME280;43608;49.486;9.640;2023-03-14T00:38:06;96911.91;;;10.23;82.60
57779;BME280;43608;49.486;9.640;2023-03-14T00:38:37;96894.59;;;10.13;82.46
57779;BME280;43608;49.486;9.640;2023-03-14T00:39:08;96902.41;;;10.17;82.45
57779;BME280;43608;49.486;9.640;2023-03-14T00:39:38;96910.16;;;10.23;82.24
57779;BME280;43608;49.486;9.640;2023-03-14T00:40:09;96912.69;;;10.27;81.98
57779;BME280;43608;49.486;9.640;2023-03-14T00:40:39;96921.44;;;10.29;82.04
57779;BME280;43608;49.486;9.640;2023-03-14T00:41:12;96879.47;;;10.16;81.73
57779;BME280;43608;49.486;9.640;2023-03-14T00:41:43;96900.59;;;10.18;81.75
57779;BME280;43608;49.486;9.640;2023-03-14T00:42:14;96927.63;;;10.29;81.40
57779;BME280;43608;49.486;9.640;2023-03-14T00:42:44;96902.28;;;10.20;81.63
57779;BME280;43608;49.486;9.640;2023-03-14T00:43:14;96912.81;;;10.23;81.36
57779;BME280;43608;49.486;9.640;2023-03-14T00:43:45;96906.44;;;10.29;81.36
57779;BME280;43608;49.486;9.640;2023-03-14T00:44:15;96909.19;;;10.26;81.33
57779;BME280;43608;49.486;9.640;2023-03-14T00:44:46;96912.59;;;10.30;81.18
57779;BME280;43608;49.486;9.640;2023-03-14T00:45:16;96902.28;;;10.20;80.74
57779;BME280;43608;49.486;9.640;2023-03-14T00:45:51;96918.00;;;10.27;80.67
57779;BME280;43608;49.486;9.640;2023-03-14T00:46:22;96894.41;;;10.19;80.65
57779;BME280;43608;49.486;9.640;2023-03-14T00:46:52;96917.13;;;10.26;80.49
57779;BME280;43608;49.486;9.640;2023-03-14T00:47:22;96912.03;;;10.20;80.41
57779;BME280;43608;49.486;9.640;2023-03-14T00:47:53;96907.75;;;10.16;80.42
57779;BME280;43608;49.486;9.640;2023-03-14T00:48:23;96899.09;;;10.11;80.07
57779;BME280;43608;49.486;9.640;2023-03-14T00:48:54;96916.53;;;10.16;80.30
57779;BME280;43608;49.486;9.640;2023-03-14T00:49:24;96898.44;;;10.02;80.02
57779;BME280;43608;49.486;9.640;2023-03-14T00:49:54;96911.38;;;10.12;80.35
57779;BME280;43608;49.486;9.640;2023-03-14T00:50:25;96906.28;;;10.05;80.23
57779;BME280;43608;49.486;9.640;2023-03-14T00:50:55;96920.34;;;10.07;80.98
57779;BME280;43608;49.486;9.640;2023-03-14T00:51:25;96909.00;;;10.02;80.43
57779;BME280;43608;49.486;9.640;2023-03-14T00:51:56;96908.16;;;10.02;80.58
57779;BME280;43608;49.486;9.640;2023-03-14T00:52:26;96905.59;;;9.99;80.83
57779;BME280;43608;49.486;9.640;2023-03-14T00:52:56;96922.25;;;10.02;80.47
57779;BME280;43608;49.486;9.640;2023-03-14T00:53:27;96916.22;;;9.97;80.71
57779;BME280;43608;49.486;9.640;2023-03-14T00:53:59;96904.06;;;9.91;80.97
57779;BME280;43608;49.486;9.640;2023-03-14T00:54:30;96918.81;;;9.99;80.78
57779;BME280;43608;49.486;9.640;2023-03-14T00:55:00;96908.50;;;9.91;80.91
57779;BME280;43608;49.486;9.640;2023-03-14T00:55:31;96911.88;;;9.96;80.85
57779;BME280;43608;49.486;9.640;2023-03-14T00:56:06;96909.25;;;9.95;80.92
57779;BME280;43608;49.486;9.640;2023-03-14T00:56:37;96895.34;;;9.88;80.99
57779;BME280;43608;49.486;9.640;2023-03-14T00:57:07;96899.06;;;9.82;81.08
57779;BME280;43608;49.486;9.640;2023-03-14T00:57:37;96911.09;;;9.92;81.10
57779;BME280;43608;49.486;9.640;2023-03-14T00:58:08;96912.00;;;9.91;81.01
57779;BME280;43608;49.486;9.640;2023-03-14T00:58:39;96891.16;;;9.81;81.21
57779;BME280;43608;49.486;9.640;2023-03-14T00:59:09;96911.16;;;9.89;81.19
57779;BME280;43608;49.486;9.640;2023-03-14T00:59:39;96903.44;;;9.83;81.30
57779;BME280;43608;49.486;9.640;2023-03-14T01:00:10;96915.59;;;9.89;81.41
57779;BME280;43608;49.486;9.640;2023-03-14T01:00:42;96903.38;;;9.85;81.28
57779;BME280;43608;49.486;9.640;2023-03-14T01:01:18;96899.34;;;9.71;81.57
57779;BME280;43608;49.486;9.640;2023-03-14T01:01:48;96894.06;;;9.71;81.55
57779;BME280;43608;49.486;9.640;2023-03-14T01:02:19;96905.16;;;9.84;81.40
57779;BME280;43608;49.486;9.640;2023-03-14T01:02:49;96916.66;;;9.83;81.20
57779;BME280;43608;49.486;9.640;2023-03-14T01:03:19;96897.53;;;9.73;81.37
57779;BME280;43608;49.486;9.640;2023-03-14T01:03:53;96898.16;;;9.83;81.22
57779;BME280;43608;49.486;9.640;2023-03-14T01:04:24;96899.22;;;9.76;81.18
57779;BME280;43608;49.486;9.640;2023-03-14T01:04:54;96905.31;;;9.80;81.16
57779;BME280;43608;49.486;9.640;2023-03-14T01:05:25;96880.88;;;9.70;81.29
57779;BME280;43608;49.486;9.640;2023-03-14T01:06:06;96899.13;;;9.79;81.42
57779;BME280;43608;49.486;9.640;2023-03-14T01:06:37;96900.88;;;9.80;81.44
57779;BME280;43608;49.486;9.640;2023-03-14T01:07:07;96902.66;;;9.80;81.25
57779;BME280;43608;49.486;9.640;2023-03-14T01:07:38;96892.38;;;9.69;81.48
57779;BME280;43608;49.486;9.640;2023-03-14T01:08:08;96897.44;;;9.76;81.42
57779;BME280;43608;49.486;9.640;2023-03-14T01:08:39;96910.66;;;9.78;81.54
57779;BME280;43608;49.486;9.640;2023-03-14T01:09:09;96901.00;;;9.75;81.43
57779;BME280;43608;49.486;9.640;2023-03-14T01:09:40;96892.38;;;9.69;81.48
57779;BME280;43608;49.486;9.640;2023-03-14T01:10:10;96883.69;;;9.65;81.53
57779;BME280;43608;49.486;9.640;2023-03-14T01:10:41;96913.28;;;9.78;81.88
57779;BME280;43608;49.486;9.640;2023-03-14T01:11:17;96904.56;;;9.74;81.65
57779;BME280;43608;49.486;9.640;2023-03-14T01:11:48;96911.53;;;9.77;81.66
57779;BME280;43608;49.486;9.640;2023-03-14T01:12:18;96914.19;;;9.77;81.72
57779;BME280;43608;49.486;9.640;2023-03-14T01:12:49;96910.72;;;9.75;81.74
57779;BME280;43608;49.486;9.640;2023-03-14T01:13:19;96888.19;;;9.62;81.91
57779;BME280;43608;49.486;9.640;2023-03-14T01:13:50;96902.88;;;9.72;82.05
57779;BME280;43608;49.486;9.640;2023-03-14T01:14:20;96902.00;;;9.71;82.16
57779;BME280;43608;49.486;9.640;2023-03-14T01:14:51;96905.66;;;9.67;82.06
57779;BME280;43608;49.486;9.640;2023-03-14T01:15:21;96904.63;;;9.71;81.96
57779;BME280;43608;49.486;9.640;2023-03-14T01:15:52;96911.66;;;9.72;82.30
57779;BME280;43608;49.486;9.640;2023-03-14T01:16:24;96901.97;;;9.73;82.09
57779;BME280;43608;49.486;9.640;2023-03-14T01:16:55;96901.13;;;9.71;82.21
57779;BME280;43608;49.486;9.640;2023-03-14T01:17:30;96890.72;;;9.65;82.12
57779;BME280;43608;49.486;9.640;2023-03-14T01:18:01;96903.78;;;9.71;81.94
57779;BME280;43608;49.486;9.640;2023-03-14T01:18:32;96905.53;;;9.72;82.28
57779;BME280;43608;49.486;9.640;2023-03-14T01:19:03;96893.34;;;9.66;82.26
57779;BME280;43608;49.486;9.640;2023-03-14T01:19:33;96905.56;;;9.70;82.42
57779;BME280;43608;49.486;9.640;2023-03-14T01:20:04;96901.13;;;9.71;82.42
57779;BME280;43608;49.486;9.640;2023-03-14T01:20:36;96887.41;;;9.58;82.74
57779;BME280;43608;49.486;9.640;2023-03-14T01:21:24;96892.47;;;9.66;82.44
57779;BME280;43608;49.486;9.640;2023-03-14T01:21:55;96897.06;;;9.59;82.36
57779;BME280;43608;49.486;9.640;2023-03-14T01:22:26;96893.47;;;9.62;82.34
57779;BME280;43608;49.486;9.640;2023-03-14T01:22:56;96889.97;;;9.61;82.34
57779;BME280;43608;49.486;9.640;2023-03-14T01:23:27;96897.66;;;9.69;82.17
57779;BME280;43608;49.486;9.640;2023-03-14T01:23:59;96905.66;;;9.67;82.32
57779;BME280;43608;49.486;9.640;2023-03-14T01:24:29;96890.88;;;9.60;82.43
57779;BME280;43608;49.486;9.640;2023-03-14T01:25:00;96898.88;;;9.58;82.44
57779;BME280;43608;49.486;9.640;2023-03-14T01:25:30;96898.66;;;9.66;82.29
57779;BME280;43608;49.486;9.640;2023-03-14T01:26:01;96890.00;;;9.59;82.36
57779;BME280;43608;49.486;9.640;2023-03-14T01:26:33;96908.25;;;9.69;82.55
57779;BME280;43608;49.486;9.640;2023-03-14T01:27:03;96898.59;;;9.68;82.53
57779;BME280;43608;49.486;9.640;2023-03-14T01:27:34;96898.53;;;9.69;82.55
57779;BME280;43608;49.486;9.640;2023-03-14T01:28:04;96901.31;;;9.65;82.49
57779;BME280;43608;49.486;9.640;2023-03-14T01:28:35;96882.22;;;9.55;82.46
57779;BME280;43608;49.486;9.640;2023-03-14T01:29:05;96879.53;;;9.56;82.55
57779;BME280;43608;49.486;9.640;2023-03-14T01:29:35;96884.81;;;9.56;82.23
57779;BME280;43608;49.486;9.640;2023-03-14T01:30:06;96882.06;;;9.59;82.49
57779;BME280;43608;49.486;9.640;2023-03-14T01:30:38;96891.63;;;9.65;82.55
57779;BME280;43608;49.486;9.640;2023-03-14T01:31:10;96863.81;;;9.50;82.52
57779;BME280;43608;49.486;9.640;2023-03-14T01:31:41;96895.94;;;9.68;82.71
57779;BME280;43608;49.486;9.640;2023-03-14T01:32:11;96895.00;;;9.69;82.55
57779;BME280;43608;49.486;9.640;2023-03-14T01:32:42;96879.41;;;9.59;82.42
57779;BME280;43608;49.486;9.640;2023-03-14T01:33:12;96882.91;;;9.62;82.58
57779;BME280;43608;49.486;9.640;2023-03-14T01:33:45;96889.88;;;9.64;82.77
57779;BME280;43608;49.486;9.640;2023-03-14T01:34:16;96886.31;;;9.65;82.66
57779;BME280;43608;49.486;9.640;2023-03-14T01:34:46;96878.50;;;9.61;82.74
57779;BME280;43608;49.486;9.640;2023-03-14T01:35:16;96884.53;;;9.66;82.76
57779;BME280;43608;49.486;9.640;2023-03-14T01:35:49;96885.50;;;9.63;82.73
57779;BME280;43608;49.486;9.640;2023-03-14T01:36:20;96855.09;;;9.48;82.74
57779;BME280;43608;49.486;9.640;2023-03-14T01:36:50;96885.59;;;9.60;82.65
57779;BME280;43608;49.486;9.640;2023-03-14T01:37:21;96879.28;;;9.64;82.91
57779;BME280;43608;49.486;9.640;2023-03-14T01:37:51;96877.50;;;9.65;83.02
57779;BME280;43608;49.486;9.640;2023-03-14T01:38:22;96839.50;;;9.37;82.94
57779;BME280;43608;49.486;9.640;2023-03-14T01:38:52;96877.59;;;9.62;83.12
57779;BME280;43608;49.486;9.640;2023-03-14T01:39:23;96863.69;;;9.55;82.98
57779;BME280;43608;49.486;9.640;2023-03-14T01:39:53;96880.19;;;9.63;82.92
57779;BME280;43608;49.486;9.640;2023-03-14T01:40:23;96875.88;;;9.61;82.77
57779;BME280;43608;49.486;9.640;2023-03-14T01:40:54;96881.09;;;9.62;83.00
57779;BME280;43608;49.486;9.640;2023-03-14T01:41:25;96875.00;;;9.60;82.92
57779;BME280;43608;49.486;9.640;2023-03-14T01:41:56;96880.16;;;9.65;83.01
57779;BME280;43608;49.486;9.640;2023-03-14T01:42:26;96877.50;;;9.65;83.18
57779;BME280;43608;49.486;9.640;2023-03-14T01:43:00;96858.53;;;9.50;82.90
57779;BME280;43608;49.486;9.640;2023-03-14T01:43:35;96870.53;;;9.62;83.35
57779;BME280;43608;49.486;9.640;2023-03-14T01:44:08;96870.72;;;9.56;83.27
57779;BME280;43608;49.486;9.640;2023-03-14T01:46:32;96882.91;;;9.62;83.18
57779;BME280;43608;49.486;9.640;2023-03-14T01:47:06;96882.00;;;9.63;83.13
57779;BME280;43608;49.486;9.640;2023-03-14T01:47:36;96887.28;;;9.63;83.31
57779;BME280;43608;49.486;9.640;2023-03-14T01:48:07;96857.69;;;9.50;83.36
57779;BME280;43608;49.486;9.640;2023-03-14T01:48:42;96874.91;;;9.63;83.34
57779;BME280;43608;49.486;9.640;2023-03-14T01:49:29;96878.44;;;9.64;83.35
57779;BME280;43608;49.486;9.640;2023-03-14T01:50:06;96872.41;;;9.58;83.57
57779;BME280;43608;49.486;9.640;2023-03-14T01:50:38;96874.97;;;9.62;83.53
57779;BME280;43608;49.486;9.640;2023-03-14T01:51:13;96883.72;;;9.64;83.58
57779;BME280;43608;49.486;9.640;2023-03-14T01:51:50;96860.28;;;9.51;83.44
57779;BME280;43608;49.486;9.640;2023-03-14T01:52:37;96857.56;;;9.53;83.72
57779;BME280;43608;49.486;9.640;2023-03-14T01:53:12;96857.69;;;9.50;83.48
57779;BME280;43608;49.486;9.640;2023-03-14T01:53:42;96874.22;;;9.56;83.58
57779;BME280;43608;49.486;9.640;2023-03-14T01:54:25;96871.47;;;9.61;83.83
57779;BME280;43608;49.486;9.640;2023-03-14T01:55:03;96860.97;;;9.58;83.87
57779;BME280;43608;49.486;9.640;2023-03-14T01:55:36;96831.31;;;9.47;84.00
57779;BME280;43608;49.486;9.640;2023-03-14T01:56:07;96839.06;;;9.53;83.95
57779;BME280;43608;49.486;9.640;2023-03-14T01:56:41;96845.03;;;9.59;83.87
57779;BME280;43608;49.486;9.640;2023-03-14T01:57:17;96842.53;;;9.55;84.10
57779;BME280;43608;49.486;9.640;2023-03-14T01:57:52;96838.03;;;9.58;84.13
57779;BME280;43608;49.486;9.640;2023-03-14T01:58:26;96816.41;;;9.44;84.22
57779;BME280;43608;49.486;9.640;2023-03-14T01:58:58;96838.03;;;9.58;84.09
57779;BME280;43608;49.486;9.640;2023-03-14T01:59:30;96832.75;;;9.58;84.16
57779;BME280;43608;49.486;9.640;2023-03-14T02:00:13;96831.00;;;9.57;84.23
57779;BME280;43608;49.486;9.640;2023-03-14T02:00:44;96816.22;;;9.50;84.33
57779;BME280;43608;49.486;9.640;2023-03-14T02:01:18;96822.34;;;9.52;84.36
57779;BME280;43608;49.486;9.640;2023-03-14T02:01:51;96829.22;;;9.58;84.18
57779;BME280;43608;49.486;9.640;2023-03-14T02:02:24;96804.84;;;9.48;84.51
57779;BME280;43608;49.486;9.640;2023-03-14T02:03:02;96823.06;;;9.57;84.33
57779;BME280;43608;49.486;9.640;2023-03-14T02:03:39;96822.19;;;9.57;84.49
57779;BME280;43608;49.486;9.640;2023-03-14T02:04:15;96799.56;;;9.48;84.56
57779;BME280;43608;49.486;9.640;2023-03-14T02:04:48;96793.50;;;9.45;84.63
57779;BME280;43608;49.486;9.640;2023-03-14T02:05:23;96824.84;;;9.57;84.50
57779;BME280;43608;49.486;9.640;2023-03-14T02:05:56;96806.47;;;9.52;84.57
57779;BME280;43608;49.486;9.640;2023-03-14T02:06:54;96815.19;;;9.56;84.82
57779;BME280;43608;49.486;9.640;2023-03-14T02:07:41;96789.88;;;9.47;84.95
57779;BME280;43608;49.486;9.640;2023-03-14T02:08:19;96800.19;;;9.56;84.73
57779;BME280;43608;49.486;9.640;2023-03-14T02:08:50;96798.50;;;9.54;84.66
57779;BME280;43608;49.486;9.640;2023-03-14T02:09:21;96795.97;;;9.49;84.94
57779;BME280;43608;49.486;9.640;2023-03-14T02:09:52;96803.69;;;9.57;84.97
57779;BME280;43608;49.486;9.640;2023-03-14T02:10:27;96798.44;;;9.55;85.05
57779;BME280;43608;49.486;9.640;2023-03-14T02:10:58;96798.53;;;9.52;84.76
57779;BME280;43608;49.486;9.640;2023-03-14T02:11:29;96789.72;;;9.52;84.89
57779;BME280;43608;49.486;9.640;2023-03-14T02:12:00;96793.19;;;9.54;85.04
57779;BME280;43608;49.486;9.640;2023-03-14T02:12:31;96794.03;;;9.56;85.06
57779;BME280;43608;49.486;9.640;2023-03-14T02:13:04;96771.56;;;9.41;85.13
57779;BME280;43608;49.486;9.640;2023-03-14T02:13:35;96782.75;;;9.49;85.15
57779;BME280;43608;49.486;9.640;2023-03-14T02:14:05;96793.16;;;9.55;85.17
57779;BME280;43608;49.486;9.640;2023-03-14T02:14:37;96776.66;;;9.47;85.18
57779;BME280;43608;49.486;9.640;2023-03-14T02:15:08;96783.72;;;9.47;85.25
57779;BME280;43608;49.486;9.640;2023-03-14T02:15:39;96795.84;;;9.54;85.39
57779;BME280;43608;49.486;9.640;2023-03-14T02:16:10;96798.44;;;9.55;85.23
57779;BME280;43608;49.486;9.640;2023-03-14T02:16:40;96793.16;;;9.55;85.42
57779;BME280;43608;49.486;9.640;2023-03-14T02:17:11;96794.06;;;9.54;85.33
57779;BME280;43608;49.486;9.640;2023-03-14T02:17:42;96774.09;;;9.44;85.44
57779;BME280;43608;49.486;9.640;2023-03-14T02:18:15;96773.34;;;9.40;85.38
57779;BME280;43608;49.486;9.640;2023-03-14T02:18:47;96783.69;;;9.48;85.43
57779;BME280;43608;49.486;9.640;2023-03-14T02:19:23;96791.41;;;9.54;85.51
57779;BME280;43608;49.486;9.640;2023-03-14T02:22:12;96780.16;;;9.48;85.63
57779;BME280;43608;49.486;9.640;2023-03-14T02:22:44;96771.44;;;9.44;85.52
57779;BME280;43608;49.486;9.640;2023-03-14T02:23:17;96787.09;;;9.52;85.60
57779;BME280;43608;49.486;9.640;2023-03-14T02:26:09;96776.50;;;9.52;85.88
57779;BME280;43608;49.486;9.640;2023-03-14T02:27:07;96780.94;;;9.51;85.91
57779;BME280;43608;49.486;9.640;2023-03-14T02:27:38;96787.97;;;9.52;86.00
57779;BME280;43608;49.486;9.640;2023-03-14T02:28:09;96783.59;;;9.51;85.69
57779;BME280;43608;49.486;9.640;2023-03-14T02:28:40;96780.09;;;9.49;85.68
57779;BME280;43608;49.486;9.640;2023-03-14T02:29:10;96775.78;;;9.47;85.82
57779;BME280;43608;49.486;9.640;2023-03-14T02:29:59;96757.66;;;9.34;85.69
57779;BME280;43608;49.486;9.640;2023-03-14T02:30:31;96784.50;;;9.50;86.03
57779;BME280;43608;49.486;9.640;2023-03-14T02:31:02;96783.59;;;9.51;85.92
57779;BME280;43608;49.486;9.640;2023-03-14T02:31:33;96772.47;;;9.40;86.03
57779;BME280;43608;49.486;9.640;2023-03-14T02:32:04;96763.72;;;9.38;85.98
57779;BME280;43608;49.486;9.640;2023-03-14T02:32:37;96789.84;;;9.49;85.84
57779;BME280;43608;49.486;9.640;2023-03-14T02:33:12;96786.34;;;9.48;86.00
57779;BME280;43608;49.486;9.640;2023-03-14T02:33:43;96756.81;;;9.32;86.08
57779;BME280;43608;49.486;9.640;2023-03-14T02:34:13;96788.97;;;9.48;86.07
57779;BME280;43608;49.486;9.640;2023-03-14T02:34:47;96789.00;;;9.47;85.90
57779;BME280;43608;49.486;9.640;2023-03-14T02:35:22;96751.81;;;9.23;85.96
57779;BME280;43608;49.486;9.640;2023-03-14T02:36:00;96788.16;;;9.46;85.92
57779;BME280;43608;49.486;9.640;2023-03-14T02:36:32;96761.38;;;9.29;85.99
57779;BME280;43608;49.486;9.640;2023-03-14T02:37:03;96731.06;;;9.11;86.18
57779;BME280;43608;49.486;9.640;2023-03-14T02:37:39;96787.28;;;9.46;86.18
57779;BME280;43608;49.486;9.640;2023-03-14T02:39:24;96799.56;;;9.47;85.96
57779;BME280;43608;49.486;9.640;2023-03-14T02:39:47;96781.41;;;9.36;86.11
57779;BME280;43608;49.486;9.640;2023-03-14T02:40:19;96771.88;;;9.30;86.02
57779;BME280;43608;49.486;9.640;2023-03-14T02:40:49;96804.00;;;9.46;86.04
57779;BME280;43608;49.486;9.640;2023-03-14T02:41:20;96799.72;;;9.42;86.10
57779;BME280;43608;49.486;9.640;2023-03-14T02:41:50;96797.88;;;9.44;85.89
57779;BME280;43608;49.486;9.640;2023-03-14T02:42:21;96764.00;;;9.29;85.85
57779;BME280;43608;49.486;9.640;2023-03-14T02:42:51;96795.34;;;9.41;86.07
57779;BME280;43608;49.486;9.640;2023-03-14T02:43:22;96781.50;;;9.33;86.04
57779;BME280;43608;49.486;9.640;2023-03-14T02:43:52;96794.34;;;9.45;85.96
57779;BME280;43608;49.486;9.640;2023-03-14T02:44:23;96804.06;;;9.45;86.05
57779;BME280;43608;49.486;9.640;2023-03-14T02:45:48;96797.88;;;9.44;86.02
57779;BME280;43608;49.486;9.640;2023-03-14T02:46:20;96771.00;;;9.30;85.96
57779;BME280;43608;49.486;9.640;2023-03-14T02:46:51;96777.06;;;9.33;86.00
57779;BME280;43608;49.486;9.640;2023-03-14T02:47:27;96785.22;;;9.25;85.75
57779;BME280;43608;49.486;9.640;2023-03-14T02:48:06;96766.53;;;9.32;85.89
57779;BME280;43608;49.486;9.640;2023-03-14T02:48:41;96779.59;;;9.38;85.86
57779;BME280;43608;49.486;9.640;2023-03-14T02:49:14;96763.22;;;9.25;85.85
57779;BME280;43608;49.486;9.640;2023-03-14T02:49:45;96795.25;;;9.44;85.64
57779;BME280;43608;49.486;9.640;2023-03-14T02:50:19;96793.53;;;9.43;86.11
57779;BME280;43608;49.486;9.640;2023-03-14T02:50:54;96788.25;;;9.43;85.92
57779;BME280;43608;49.486;9.640;2023-03-14T02:51:26;96776.94;;;9.38;85.86
57779;BME280;43608;49.486;9.640;2023-03-14T02:51:56;96785.63;;;9.41;85.69
57779;BME280;43608;49.486;9.640;2023-03-14T02:52:26;96790.91;;;9.43;85.81
57779;BME280;43608;49.486;9.640;2023-03-14T02:52:57;96784.88;;;9.38;85.74
57779;BME280;43608;49.486;9.640;2023-03-14T02:53:37;96790.16;;;9.38;85.76
57779;BME280;43608;49.486;9.640;2023-03-14T02:54:08;96782.13;;;9.41;85.81
57779;BME280;43608;49.486;9.640;2023-03-14T02:54:39;96764.75;;;9.32;85.54
57779;BME280;43608;49.486;9.640;2023-03-14T02:55:09;96778.59;;;9.42;85.81
57779;BME280;43608;49.486;9.640;2023-03-14T02:55:44;96750.81;;;9.27;85.67
57779;BME280;43608;49.486;9.640;2023-03-14T02:56:15;96766.31;;;9.39;85.62
57779;BME280;43608;49.486;9.640;2023-03-14T02:56:45;96766.44;;;9.35;85.35
57779;BME280;43608;49.486;9.640;2023-03-14T02:57:16;96760.13;;;9.40;85.86
57779;BME280;43608;49.486;9.640;2023-03-14T02:57:46;96750.75;;;9.30;85.81
57779;BME280;43608;49.486;9.640;2023-03-14T02:58:17;96769.75;;;9.41;86.07
57779;BME280;43608;49.486;9.640;2023-03-14T02:58:48;96755.84;;;9.36;85.90
57779;BME280;43608;49.486;9.640;2023-03-14T02:59:18;96755.78;;;9.38;85.78
57779;BME280;43608;49.486;9.640;2023-03-14T02:59:49;96754.97;;;9.36;85.62
57779;BME280;43608;49.486;9.640;2023-03-14T03:00:19;96744.66;;;9.26;85.63